Time;durP1;ratioP1;P1;durP2;ratioP2;P2;SDS_P1;SDS_P2;PMS_P1;PMS_P2;Temp;Humidity;BMP_temperature;BMP_pressure;BME280_temperature;BME280_humidity;BME280_pressure;Samples;Min_cycle;Max_cycle;Signal;HPM_P1;HPM_P2
2021/05/29 00:00:50;;;;;;;21.70;14.30;;;;;;;15.88;100.00;98476.80;1854539;76;28373;-60
2021/05/29 00:03:27;;;;;;;19.15;12.53;;;;;;;15.92;100.00;98477.14;1889894;76;22120;-62
2021/05/29 00:06:03;;;;;;;18.10;14.05;;;;;;;15.90;100.00;98473.70;1870591;76;22112;-59
2021/05/29 00:08:48;;;;;;;23.02;13.85;;;;;;;15.87;100.00;98475.06;1827639;78;21128;-61
2021/05/29 00:11:23;;;;;;;19.73;13.50;;;;;;;15.91;100.00;98474.14;1870642;76;22129;-60
2021/05/29 00:13:59;;;;;;;20.88;14.93;;;;;;;15.94;100.00;98477.98;1870606;76;22615;-61
2021/05/29 00:16:35;;;;;;;19.65;14.15;;;;;;;15.99;100.00;98474.39;1870412;76;22567;-60
2021/05/29 00:19:20;;;;;;;19.25;13.98;;;;;;;15.99;100.00;98471.80;1827521;77;21553;-60
2021/05/29 00:21:55;;;;;;;21.82;15.90;;;;;;;16.04;100.00;98475.62;1890014;76;22167;-62
2021/05/29 00:24:31;;;;;;;21.23;15.63;;;;;;;16.08;100.00;98472.08;1870573;76;22188;-58
2021/05/29 00:27:16;;;;;;;24.90;16.65;;;;;;;16.07;100.00;98467.74;1827706;78;21146;-59
2021/05/29 00:29:51;;;;;;;21.82;15.93;;;;;;;16.17;100.00;98460.62;1870578;76;22203;-59
2021/05/29 00:32:26;;;;;;;24.80;15.95;;;;;;;16.19;100.00;98458.39;1870646;76;22126;-59
2021/05/29 00:35:09;;;;;;;22.60;15.45;;;;;;;16.19;99.85;98453.19;1889847;76;22159;-59
2021/05/29 00:37:44;;;;;;;27.82;16.87;;;;;;;16.21;99.79;98454.47;1870809;76;22120;-59
2021/05/29 00:40:20;;;;;;;23.65;15.45;;;;;;;16.20;99.61;98450.98;1889896;76;22131;-59
2021/05/29 00:42:55;;;;;;;29.20;15.85;;;;;;;16.20;99.52;98456.20;1870781;76;20098;-60
2021/05/29 00:45:29;;;;;;;21.93;15.23;;;;;;;16.19;99.47;98455.80;1889927;76;22163;-59
2021/05/29 00:48:06;;;;;;;22.95;14.58;;;;;;;16.16;99.64;98456.31;1889851;76;22545;-61
2021/05/29 00:50:49;;;;;;;22.48;16.15;;;;;;;16.17;99.74;98464.08;1873830;76;28381;-59
2021/05/29 00:53:26;;;;;;;22.00;13.15;;;;;;;16.24;99.70;98461.77;1870446;76;22169;-60
2021/05/29 00:56:07;;;;;;;20.40;14.03;;;;;;;16.20;99.55;98456.65;1889866;76;22109;-60
2021/05/29 00:58:53;;;;;;;18.70;13.68;;;;;;;16.14;99.61;98458.94;1861186;77;21134;-61
2021/05/29 01:01:35;;;;;;;20.32;14.07;;;;;;;16.19;99.57;98460.15;1890039;76;22221;-61
2021/05/29 01:04:09;;;;;;;21.33;14.20;;;;;;;16.15;99.70;98450.22;1870609;76;22191;-61
2021/05/29 01:06:44;;;;;;;19.98;13.03;;;;;;;16.09;99.78;98443.84;1870629;76;22147;-59
2021/05/29 01:09:20;;;;;;;20.82;15.72;;;;;;;16.00;100.00;98444.90;1854519;76;27941;-58
2021/05/29 01:11:56;;;;;;;19.02;14.47;;;;;;;15.99;100.00;98441.02;1854564;76;27921;-60
2021/05/29 01:14:32;;;;;;;20.62;16.67;;;;;;;16.03;100.00;98448.73;1854681;76;38660;-58
2021/05/29 01:17:08;;;;;;;21.52;13.98;;;;;;;16.11;100.00;98443.38;1870406;76;22120;-60
2021/05/29 01:19:42;;;;;;;20.57;12.95;;;;;;;16.09;100.00;98431.28;1889832;76;22179;-60
2021/05/29 01:22:43;;;;;;;16.45;12.88;;;;;;;16.04;100.00;98426.16;1870575;76;22109;-60
2021/05/29 01:25:39;;;;;;;19.70;13.35;;;;;;;16.02;100.00;98434.44;1889922;76;22116;-59
2021/05/29 01:28:26;;;;;;;20.88;15.38;;;;;;;15.97;100.00;98434.52;1870414;76;22136;-60
2021/05/29 01:31:08;;;;;;;19.05;13.10;;;;;;;15.91;100.00;98433.80;1870634;76;22137;-59
2021/05/29 01:33:59;;;;;;;18.62;13.88;;;;;;;15.84;100.00;98432.59;1827537;78;21293;-59
2021/05/29 01:36:39;;;;;;;22.65;15.35;;;;;;;15.82;100.00;98418.78;1889925;76;22552;-60
2021/05/29 01:39:14;;;;;;;31.60;15.90;;;;;;;15.79;100.00;98416.22;1889855;76;22111;-59
2021/05/29 01:42:00;;;;;;;21.35;15.28;;;;;;;15.75;100.00;98424.13;1861512;77;21264;-60
2021/05/29 01:44:35;;;;;;;22.05;16.37;;;;;;;15.77;100.00;98418.02;1854789;76;38259;-59
2021/05/29 01:47:09;;;;;;;19.52;13.98;;;;;;;15.79;100.00;98424.02;1870579;76;22154;-61
2021/05/29 01:49:45;;;;;;;17.67;13.93;;;;;;;15.77;100.00;98420.62;1854629;76;27917;-59
2021/05/29 01:52:20;;;;;;;17.70;12.50;;;;;;;15.80;100.00;98421.86;1870598;76;22136;-60
2021/05/29 01:54:54;;;;;;;17.05;13.20;;;;;;;15.83;100.00;98423.09;1870596;76;22113;-59
2021/05/29 01:57:30;;;;;;;18.85;15.28;;;;;;;15.84;100.00;98426.09;1854439;76;27937;-60
2021/05/29 02:00:07;;;;;;;19.30;13.85;;;;;;;15.93;100.00;98425.53;1870832;76;22109;-61
2021/05/29 02:02:49;;;;;;;16.48;12.88;;;;;;;15.95;100.00;98422.01;1869726;76;22612;-61
2021/05/29 02:05:35;;;;;;;16.25;13.32;;;;;;;15.91;100.00;98426.00;1760483;81;21133;-59
2021/05/29 02:08:12;;;;;;;20.30;14.78;;;;;;;15.96;100.00;98417.20;1873787;76;27912;-61
2021/05/29 02:10:49;;;;;;;21.65;14.93;;;;;;;16.06;100.00;98421.79;1870407;76;22164;-60
2021/05/29 02:13:41;;;;;;;18.42;13.50;;;;;;;16.00;100.00;98419.29;1827601;77;21106;-59
2021/05/29 02:16:17;;;;;;;20.95;12.88;;;;;;;16.07;100.00;98424.80;1870595;76;22113;-60
2021/05/29 02:18:52;;;;;;;19.32;13.68;;;;;;;16.07;100.00;98414.38;1870508;76;22153;-60
2021/05/29 02:21:28;;;;;;;20.30;14.03;;;;;;;16.09;100.00;98413.91;1854454;76;28405;-59
2021/05/29 02:24:09;;;;;;;18.00;13.88;;;;;;;16.10;100.00;98418.22;1869760;76;22582;-58
2021/05/29 02:26:44;;;;;;;16.12;13.32;;;;;;;16.09;100.00;98410.01;1889887;76;22152;-58
2021/05/29 02:29:19;;;;;;;19.02;14.80;;;;;;;16.05;100.00;98409.64;1854514;76;27936;-60
2021/05/29 02:31:54;;;;;;;20.77;13.83;;;;;;;16.09;100.00;98408.70;1870053;76;22515;-59
2021/05/29 02:34:28;;;;;;;17.35;13.53;;;;;;;16.13;100.00;98410.38;1870600;76;22136;-59
2021/05/29 02:37:04;;;;;;;15.55;12.43;;;;;;;16.13;100.00;98406.47;1870556;76;22149;-60
2021/05/29 02:39:38;;;;;;;18.27;13.25;;;;;;;16.11;100.00;98410.84;1870621;76;22121;-59
2021/05/29 02:42:14;;;;;;;19.92;14.58;;;;;;;16.08;100.00;98408.73;1854552;76;27939;-61
2021/05/29 02:44:50;;;;;;;17.98;13.75;;;;;;;16.15;100.00;98409.02;1870496;76;20097;-66
2021/05/29 02:47:25;;;;;;;17.05;12.98;;;;;;;16.10;100.00;98410.41;1857221;76;22262;-59
2021/05/29 02:50:08;;;;;;;20.30;13.38;;;;;;;16.02;100.00;98410.56;1850579;76;22636;-60
2021/05/29 02:52:44;;;;;;;17.70;13.10;;;;;;;15.98;100.00;98419.79;1867575;76;22194;-60
2021/05/29 02:55:30;;;;;;;22.20;14.07;;;;;;;15.93;100.00;98417.72;1832126;77;21560;-58
2021/05/29 02:58:05;;;;;;;19.85;13.15;;;;;;;15.90;100.00;98404.33;1844099;76;22183;-61
2021/05/29 03:00:44;;;;;;;26.82;16.35;;;;;;;15.88;100.00;98406.55;1864122;76;22166;-62
2021/05/29 03:03:19;;;;;;;22.45;15.20;;;;;;;15.86;100.00;98401.81;1870665;76;22567;-61
2021/05/29 03:05:53;;;;;;;20.43;13.93;;;;;;;15.81;100.00;98405.80;1870594;76;22109;-62
2021/05/29 03:08:28;;;;;;;22.02;13.80;;;;;;;15.79;100.00;98408.41;1870492;76;22140;-61
2021/05/29 03:11:04;;;;;;;21.77;15.05;;;;;;;15.82;100.00;98408.37;1870560;76;22562;-60
2021/05/29 03:13:39;;;;;;;25.88;15.55;;;;;;;15.82;100.00;98404.47;1870341;76;20347;-66
2021/05/29 03:16:13;;;;;;;22.95;15.00;;;;;;;15.78;100.00;98406.70;1885672;76;22198;-63
2021/05/29 03:18:49;;;;;;;22.62;15.53;;;;;;;15.74;100.00;98405.48;1854209;76;28015;-61
2021/05/29 03:21:24;;;;;;;18.10;12.98;;;;;;;15.76;100.00;98406.33;1888320;76;22207;-63
2021/05/29 03:23:58;;;;;;;18.55;13.08;;;;;;;15.74;100.00;98408.94;1870637;76;22139;-64
2021/05/29 03:26:34;;;;;;;19.60;13.45;;;;;;;15.74;100.00;98408.94;1873772;76;27924;-63
2021/05/29 03:29:16;;;;;;;16.05;11.97;;;;;;;15.77;100.00;98407.61;1890205;76;22179;-63
2021/05/29 03:31:51;;;;;;;20.08;13.43;;;;;;;15.78;100.00;98406.70;1889875;76;22103;-59
2021/05/29 03:34:37;;;;;;;20.12;13.00;;;;;;;15.72;100.00;98410.73;1861307;77;21138;-64
2021/05/29 03:37:12;;;;;;;20.32;12.33;;;;;;;15.71;100.00;98407.70;1870615;76;22121;-62
2021/05/29 03:39:46;;;;;;;21.68;13.32;;;;;;;15.65;100.00;98407.80;1870634;76;22156;-62
2021/05/29 03:42:22;;;;;;;16.62;11.10;;;;;;;15.66;100.00;98413.41;1870624;76;22547;-64
2021/05/29 03:44:57;;;;;;;16.85;12.05;;;;;;;15.66;100.00;98425.56;1873814;76;27911;-62
2021/05/29 03:47:32;;;;;;;16.77;11.75;;;;;;;15.70;100.00;98420.31;1870593;76;22547;-62
2021/05/29 03:50:10;;;;;;;18.62;12.07;;;;;;;15.68;100.00;98415.54;1854710;76;27910;-64
2021/05/29 03:52:44;;;;;;;19.77;11.88;;;;;;;15.71;100.00;98414.20;1870776;76;22147;-63
2021/05/29 03:55:25;;;;;;;19.48;11.45;;;;;;;15.71;100.00;98417.26;1869768;76;22144;-66
2021/05/29 03:58:03;;;;;;;16.75;12.15;;;;;;;15.66;100.00;98418.61;1854528;76;28354;-62
2021/05/29 04:00:37;;;;;;;13.90;9.63;;;;;;;15.72;100.00;98421.14;1889917;76;22116;-63
2021/05/29 04:03:13;;;;;;;13.95;9.33;;;;;;;15.72;100.00;98425.05;1889879;76;22247;-65
2021/05/29 04:05:54;;;;;;;13.70;9.25;;;;;;;15.65;100.00;98420.80;1889834;76;22168;-64
2021/05/29 04:08:29;;;;;;;12.55;8.35;;;;;;;15.61;100.00;98426.94;1870627;76;22247;-63
2021/05/29 04:11:03;;;;;;;13.08;8.15;;;;;;;15.61;100.00;98426.94;1870631;76;22108;-61
2021/05/29 04:13:39;;;;;;;11.70;8.55;;;;;;;15.57;100.00;98407.05;1854642;76;27915;-61
2021/05/29 04:16:14;;;;;;;9.65;7.12;;;;;;;15.52;100.00;98419.28;1873828;76;27960;-64
2021/05/29 04:18:50;;;;;;;10.20;6.42;;;;;;;15.49;100.00;98429.30;1870580;76;22550;-63
2021/05/29 04:21:25;;;;;;;14.03;8.50;;;;;;;15.48;100.00;98422.84;1889918;76;22116;-64
2021/05/29 04:24:11;;;;;;;12.20;7.30;;;;;;;15.36;100.00;98433.85;1861094;77;21273;-61
2021/05/29 04:26:46;;;;;;;12.47;7.47;;;;;;;15.38;100.00;98427.34;1870576;76;22152;-61
2021/05/29 04:29:21;;;;;;;10.08;7.45;;;;;;;15.34;100.00;98436.95;1870627;76;22152;-63
2021/05/29 04:31:57;;;;;;;9.63;6.42;;;;;;;15.32;100.00;98425.70;1889887;76;20100;-63
2021/05/29 04:34:32;;;;;;;8.63;5.28;;;;;;;15.22;100.00;98415.05;1854573;76;28340;-63
2021/05/29 04:37:07;;;;;;;10.53;5.53;;;;;;;15.15;100.00;98435.07;1889894;76;22151;-63
2021/05/29 04:39:43;;;;;;;9.20;5.33;;;;;;;15.15;100.00;98441.57;1889967;76;22112;-63
2021/05/29 04:42:30;;;;;;;7.08;4.55;;;;;;;15.07;100.00;98445.19;1791737;80;21280;-62
2021/05/29 04:45:09;;;;;;;8.80;4.33;;;;;;;15.05;100.00;98427.45;1873786;76;38623;-64
2021/05/29 04:47:44;;;;;;;8.98;4.47;;;;;;;15.02;100.00;98440.05;1870621;76;22553;-64
2021/05/29 04:50:22;;;;;;;9.88;5.62;;;;;;;15.03;100.00;98438.30;1870599;76;22200;-65
2021/05/29 04:53:07;;;;;;;7.62;4.37;;;;;;;14.94;99.86;98437.57;1827807;78;21126;-63
2021/05/29 04:55:42;;;;;;;11.18;4.28;;;;;;;15.01;99.63;98433.56;1854645;76;28351;-62
2021/05/29 04:58:18;;;;;;;10.13;4.50;;;;;;;15.06;99.48;98446.05;1854542;76;28028;-64
2021/05/29 05:00:54;;;;;;;7.65;4.53;;;;;;;15.09;99.28;98448.63;1870655;76;22548;-63
2021/05/29 05:03:41;;;;;;;9.80;4.40;;;;;;;15.05;99.38;98437.84;1827959;78;21722;-64
2021/05/29 05:06:35;;;;;;;8.18;3.65;;;;;;;15.07;99.56;98455.13;1868669;76;22642;-62
2021/05/29 05:09:10;;;;;;;7.83;3.60;;;;;;;15.02;99.32;98450.89;1889917;76;22119;-64
2021/05/29 05:11:45;;;;;;;5.25;2.92;;;;;;;14.95;99.33;98454.86;1889914;76;22542;-63
2021/05/29 05:14:20;;;;;;;8.28;3.02;;;;;;;14.94;99.32;98428.92;1889968;76;22144;-65
2021/05/29 05:17:02;;;;;;;9.15;3.10;;;;;;;14.90;99.51;98448.88;1869760;76;22174;-63
2021/05/29 05:19:37;;;;;;;6.55;3.62;;;;;;;14.86;99.81;98458.92;1889944;76;22258;-64
2021/05/29 05:22:13;;;;;;;5.20;2.30;;;;;;;14.83;100.00;98463.28;1854552;76;27886;-64
2021/05/29 05:24:47;;;;;;;3.60;2.20;;;;;;;14.78;99.58;98450.80;1870736;76;22109;-66
2021/05/29 05:27:22;;;;;;;4.45;2.05;;;;;;;14.79;99.95;98468.97;1870581;76;22149;-60
2021/05/29 05:29:57;;;;;;;3.67;2.40;;;;;;;14.79;100.00;98465.08;1889889;76;22558;-64
2021/05/29 05:32:31;;;;;;;4.62;2.30;;;;;;;14.79;100.00;98459.88;1870618;76;22168;-64
2021/05/29 05:35:13;;;;;;;3.77;2.30;;;;;;;14.76;100.00;98445.64;1889872;76;22553;-62
2021/05/29 05:37:46;;;;;;;3.77;1.67;;;;;;;14.76;99.47;98469.87;1870566;76;22528;-62
2021/05/29 05:40:31;;;;;;;3.75;1.98;;;;;;;14.77;99.43;98470.72;1827679;78;21095;-65
2021/05/29 05:43:07;;;;;;;4.53;2.02;;;;;;;14.89;98.71;98464.51;1870579;76;22532;-65
2021/05/29 05:45:41;;;;;;;3.60;2.12;;;;;;;14.92;97.74;98458.81;1854866;76;22231;-65
2021/05/29 05:48:16;;;;;;;5.12;2.20;;;;;;;14.95;97.03;98471.75;1823482;76;22258;-64
2021/05/29 05:53:30;;;;;;;4.47;2.10;;;;;;;15.05;96.33;98480.72;1856441;76;22171;-62
2021/05/29 05:56:06;;;;;;;3.12;1.77;;;;;;;15.08;96.25;98483.27;1873928;76;27843;-66
2021/05/29 05:58:41;;;;;;;4.00;1.90;;;;;;;15.13;95.86;98481.46;1854686;76;27828;-64
2021/05/29 06:01:16;;;;;;;4.08;1.75;;;;;;;15.22;95.49;98490.43;1854531;76;27931;-63
2021/05/29 06:03:52;;;;;;;3.92;1.70;;;;;;;15.33;95.33;98489.81;1873856;76;28275;-69
2021/05/29 06:06:27;;;;;;;8.20;1.90;;;;;;;15.46;94.56;98493.52;1870593;76;22124;-67
2021/05/29 06:09:03;;;;;;;4.65;2.10;;;;;;;15.45;94.08;98494.41;1870607;76;22178;-64
2021/05/29 06:11:38;;;;;;;3.77;1.75;;;;;;;15.39;93.57;98494.93;1858929;76;27882;-63
2021/05/29 06:20:13;;;;;;;5.58;1.80;;;;;;;15.48;92.97;98500.41;1870623;76;22171;-63
2021/05/29 06:22:49;;;;;;;3.40;1.72;;;;;;;15.53;93.08;98495.14;1870425;76;22535;-60
2021/05/29 06:25:24;;;;;;;3.60;1.50;;;;;;;15.54;92.88;98509.40;1870549;76;22121;-63
2021/05/29 06:27:59;;;;;;;5.65;1.80;;;;;;;15.55;92.36;98505.94;1854528;76;27869;-61
2021/05/29 06:30:54;;;;;;;2.20;1.35;;;;;;;15.64;92.07;98505.76;1866390;75;22196;-63
2021/05/29 06:33:28;;;;;;;3.22;1.70;;;;;;;15.72;92.06;98513.91;1889973;76;22120;-61
2021/05/29 06:36:04;;;;;;;3.15;1.55;;;;;;;15.78;91.70;98506.87;1870528;76;22146;-64
2021/05/29 06:38:50;;;;;;;2.98;1.40;;;;;;;15.83;91.87;98505.05;1827652;78;21308;-62
2021/05/29 06:41:24;;;;;;;2.72;1.30;;;;;;;16.05;90.87;98517.66;1889915;76;22123;-61
2021/05/29 06:44:00;;;;;;;2.55;1.25;;;;;;;16.18;90.31;98512.67;1870661;76;22535;-62
2021/05/29 06:46:35;;;;;;;4.95;2.00;;;;;;;16.33;89.59;98514.09;1854630;76;27891;-61
2021/05/29 06:49:10;;;;;;;3.02;1.50;;;;;;;16.44;88.40;98516.52;1870662;76;22168;-62
2021/05/29 06:52:02;;;;;;;4.00;1.40;;;;;;;16.47;87.66;98506.03;1889957;76;22148;-62
2021/05/29 06:54:45;;;;;;;4.85;1.42;;;;;;;16.43;87.10;98527.34;1870537;76;22157;-63
2021/05/29 07:00:22;;;;;;;3.00;1.50;;;;;;;16.37;86.75;98527.48;1827804;78;21122;-64
2021/05/29 07:02:57;;;;;;;2.92;1.42;;;;;;;16.42;86.48;98528.25;1870683;76;22149;-62
2021/05/29 07:05:32;;;;;;;3.40;1.70;;;;;;;16.46;86.36;98525.13;1854544;76;27872;-63
2021/05/29 07:08:07;;;;;;;4.65;2.10;;;;;;;16.63;86.75;98525.65;1870493;76;22156;-62
2021/05/29 07:10:42;;;;;;;4.28;1.95;;;;;;;16.74;86.18;98518.05;1870560;76;22588;-63
2021/05/29 07:13:29;;;;;;;3.87;1.85;;;;;;;16.78;85.75;98524.96;1827462;77;21115;-63
2021/05/29 07:16:05;;;;;;;5.08;2.00;;;;;;;16.81;85.51;98518.38;1870588;76;22129;-62
2021/05/29 07:18:44;;;;;;;3.83;2.02;;;;;;;16.63;85.44;98525.65;1873850;76;27907;-63
2021/05/29 07:21:18;;;;;;;3.92;1.80;;;;;;;16.60;85.46;98524.41;1870818;76;22587;-62
2021/05/29 07:23:53;;;;;;;4.08;2.17;;;;;;;16.63;85.42;98521.74;1889849;76;22147;-62
2021/05/29 07:26:39;;;;;;;4.50;1.92;;;;;;;16.60;85.55;98519.20;1861031;77;21260;-64
2021/05/29 07:29:15;;;;;;;4.67;2.20;;;;;;;16.57;85.59;98528.39;1854641;76;27907;-62
2021/05/29 07:31:51;;;;;;;4.83;2.10;;;;;;;16.64;85.64;98530.44;1870603;76;22600;-64
2021/05/29 07:34:26;;;;;;;4.70;1.95;;;;;;;16.86;85.40;98536.08;1870548;76;22567;-62
2021/05/29 07:37:01;;;;;;;5.10;2.27;;;;;;;17.02;83.74;98528.35;1870548;76;22109;-63
2021/05/29 07:39:37;;;;;;;3.70;1.87;;;;;;;17.20;83.08;98531.41;1854629;76;27920;-65
2021/05/29 07:42:23;;;;;;;4.75;1.95;;;;;;;17.28;81.32;98534.73;1760581;81;21113;-60
2021/05/29 07:44:57;;;;;;;5.10;1.67;;;;;;;17.34;81.38;98537.18;1889792;76;22557;-61
2021/05/29 07:47:33;;;;;;;6.03;2.35;;;;;;;17.34;81.55;98533.27;1854489;76;27940;-62
2021/05/29 07:50:10;;;;;;;4.92;2.10;;;;;;;17.35;80.57;98540.19;1873809;76;27899;-64
2021/05/29 07:53:05;;;;;;;4.12;1.85;;;;;;;17.36;79.25;98534.09;1858272;75;28392;-63
2021/05/29 07:55:39;;;;;;;4.42;1.87;;;;;;;17.43;78.26;98533.06;1870511;76;22515;-62
2021/05/29 07:58:35;;;;;;;5.75;2.30;;;;;;;17.58;78.30;98536.61;1870259;75;22620;-65
2021/05/29 08:01:11;;;;;;;5.87;2.40;;;;;;;17.91;78.04;98528.87;1854707;76;28363;-64
2021/05/29 08:03:46;;;;;;;5.12;2.30;;;;;;;18.35;77.53;98542.50;1854664;76;27947;-63
2021/05/29 08:06:21;;;;;;;4.08;2.17;;;;;;;18.54;76.58;98537.60;1870576;76;22163;-64
2021/05/29 08:08:56;;;;;;;5.97;2.70;;;;;;;18.49;76.77;98547.33;1854629;76;27918;-64
2021/05/29 08:11:30;;;;;;;6.03;2.50;;;;;;;18.48;76.88;98544.78;1870590;76;22148;-63
2021/05/29 08:14:08;;;;;;;6.80;2.40;;;;;;;18.24;75.62;98539.30;1854497;76;27973;-62
2021/05/29 08:16:44;;;;;;;4.72;2.30;;;;;;;18.10;75.34;98534.91;1870423;76;22225;-64
2021/05/29 08:19:19;;;;;;;6.42;2.52;;;;;;;18.03;75.44;98558.16;1889858;76;22566;-62
2021/05/29 08:21:54;;;;;;;5.25;2.10;;;;;;;18.09;76.11;98557.98;1870575;76;22187;-63
2021/05/29 08:24:28;;;;;;;4.28;2.33;;;;;;;18.13;76.05;98555.72;1870547;76;22156;-62
2021/05/29 08:27:05;;;;;;;5.53;2.37;;;;;;;18.06;76.18;98558.92;1870485;76;22152;-63
2021/05/29 08:29:39;;;;;;;5.45;2.15;;;;;;;17.96;75.79;98554.83;1870563;76;22145;-63
2021/05/29 08:32:14;;;;;;;5.22;2.47;;;;;;;18.15;75.99;98559.15;1870543;76;22566;-64
2021/05/29 08:34:56;;;;;;;4.35;2.30;;;;;;;18.42;74.31;98554.95;1889703;76;22625;-63
2021/05/29 08:37:37;;;;;;;5.42;2.12;;;;;;;18.33;74.37;98552.58;1869642;76;22180;-62
2021/05/29 08:40:16;;;;;;;5.47;2.72;;;;;;;18.36;74.46;98549.42;1870575;76;22117;-62
2021/05/29 08:42:51;;;;;;;7.80;2.35;;;;;;;18.21;75.25;98540.70;1870445;76;22156;-63
2021/05/29 08:45:26;;;;;;;7.85;2.42;;;;;;;18.21;73.97;98565.50;1889854;76;22143;-63
2021/05/29 08:48:01;;;;;;;7.97;2.90;;;;;;;18.27;74.33;98561.87;1870541;76;22566;-64
2021/05/29 08:50:37;;;;;;;6.47;2.50;;;;;;;18.31;74.62;98566.98;1843777;76;28142;-66
2021/05/29 08:53:11;;;;;;;10.60;2.45;;;;;;;18.20;73.94;98563.80;1863176;76;22191;-64
2021/05/29 08:55:59;;;;;;;5.80;3.30;;;;;;;18.20;73.94;98563.80;1831820;77;21265;-67
2021/05/29 08:58:33;;;;;;;6.12;2.75;;;;;;;18.50;74.85;98563.44;1820222;77;22289;-66
2021/05/29 09:01:10;;;;;;;5.47;2.70;;;;;;;18.58;74.47;98560.61;1844177;76;22289;-68
2021/05/29 09:04:00;;;;;;;6.35;2.83;;;;;;;18.67;72.64;98535.50;1870451;76;22156;-67
2021/05/29 09:06:40;;;;;;;6.95;2.80;;;;;;;18.74;72.86;98563.17;1870472;76;22144;-68
2021/05/29 09:09:26;;;;;;;4.80;2.63;;;;;;;18.74;72.86;98563.17;1760574;81;21734;-66
2021/05/29 09:12:03;;;;;;;8.58;3.10;;;;;;;19.06;71.34;98574.52;1870436;76;22133;-66
2021/05/29 09:14:39;;;;;;;6.10;2.90;;;;;;;19.26;69.88;98575.22;1889759;76;20096;-66
2021/05/29 09:17:19;;;;;;;6.22;2.80;;;;;;;19.30;69.24;98571.59;1873740;76;28026;-66
2021/05/29 09:20:09;;;;;;;8.38;3.00;;;;;;;19.38;69.07;98570.89;1870536;76;22133;-66
2021/05/29 09:23:00;;;;;;;4.03;2.50;;;;;;;19.38;68.88;98563.50;1870555;76;22145;-65
2021/05/29 09:25:36;;;;;;;6.62;3.12;;;;;;;19.04;69.96;98572.38;1870365;76;22559;-65
2021/05/29 09:28:14;;;;;;;6.25;2.87;;;;;;;18.69;70.08;98578.14;1870524;76;22117;-67
2021/05/29 09:30:55;;;;;;;4.83;2.40;;;;;;;18.44;71.36;98566.19;1869633;76;22232;-66
2021/05/29 09:33:35;;;;;;;4.62;2.50;;;;;;;18.30;72.15;98573.11;1866274;76;22236;-69
2021/05/29 09:36:14;;;;;;;6.22;2.85;;;;;;;18.66;71.82;98575.16;1851739;76;22265;-67
2021/05/29 09:38:55;;;;;;;5.05;2.58;;;;;;;19.04;70.32;98578.92;1844695;76;22211;-65
2021/05/29 09:41:38;;;;;;;5.83;2.75;;;;;;;19.12;70.10;98576.93;1869601;76;22160;-66
2021/05/29 09:44:14;;;;;;;8.70;2.62;;;;;;;19.54;70.03;98571.30;1870277;76;22642;-66
2021/05/29 09:46:54;;;;;;;5.25;2.55;;;;;;;19.64;68.77;98572.71;1854558;76;28001;-65
2021/05/29 09:49:52;;;;;;;6.10;2.90;;;;;;;19.61;68.56;98575.86;1870396;76;23225;-66
2021/05/29 09:52:40;;;;;;;8.10;2.62;;;;;;;19.44;68.66;98561.56;1889756;76;22217;-65
2021/05/29 09:55:25;;;;;;;5.17;2.60;;;;;;;19.34;68.58;98584.14;1889881;76;22175;-65
2021/05/29 09:58:01;;;;;;;5.72;2.50;;;;;;;19.52;69.18;98576.56;1889810;76;22566;-65
2021/05/29 10:00:43;;;;;;;6.17;2.50;;;;;;;19.84;68.16;98589.09;1854454;76;27891;-67
2021/05/29 10:03:17;;;;;;;5.30;2.42;;;;;;;20.03;65.53;98586.73;1889821;76;22156;-66
2021/05/29 10:05:52;;;;;;;4.90;2.35;;;;;;;20.00;65.25;98593.40;1889820;76;22123;-66
2021/05/29 10:08:27;;;;;;;6.22;2.72;;;;;;;19.78;64.92;98600.23;1870568;76;22183;-66
2021/05/29 10:11:01;;;;;;;3.50;2.30;;;;;;;19.68;66.15;98597.91;1889889;76;22561;-66
2021/05/29 10:13:36;;;;;;;4.33;2.30;;;;;;;19.75;66.51;98599.03;1870592;76;22171;-65
2021/05/29 10:16:13;;;;;;;6.53;2.77;;;;;;;19.70;65.99;98600.48;1870465;76;22144;-66
2021/05/29 10:18:53;;;;;;;6.20;2.50;;;;;;;19.70;66.01;98610.95;1870563;76;22137;-65
2021/05/29 10:21:31;;;;;;;6.15;2.70;;;;;;;19.88;64.78;98605.13;1889787;76;22883;-66
2021/05/29 10:24:07;;;;;;;5.42;3.12;;;;;;;20.03;63.70;98613.39;1870584;76;22149;-66
2021/05/29 10:26:43;;;;;;;4.58;2.50;;;;;;;20.02;64.01;98605.96;1870540;76;22117;-65
2021/05/29 10:29:25;;;;;;;6.65;2.52;;;;;;;19.93;64.21;98601.05;1870382;76;22144;-68
2021/05/29 10:32:16;;;;;;;6.92;2.70;;;;;;;19.81;64.76;98604.91;1864335;76;22298;-66
2021/05/29 10:35:11;;;;;;;5.12;2.80;;;;;;;19.74;64.39;98602.08;1812845;78;21205;-67
2021/05/29 10:37:54;;;;;;;4.12;2.20;;;;;;;19.80;64.07;98606.29;1868880;76;22136;-66
2021/05/29 10:40:34;;;;;;;6.58;2.80;;;;;;;19.79;63.56;98603.25;1870566;76;22190;-66
2021/05/29 10:43:20;;;;;;;6.20;2.20;;;;;;;19.68;63.95;98604.91;1834894;77;22171;-68
2021/05/29 10:46:03;;;;;;;6.45;2.30;;;;;;;19.49;64.30;98605.45;1851566;76;22163;-67
2021/05/29 10:48:50;;;;;;;5.20;2.50;;;;;;;19.23;64.71;98601.03;1851595;76;22159;-66
2021/05/29 10:51:30;;;;;;;5.10;2.15;;;;;;;19.01;65.38;98594.70;1855188;76;22189;-68
2021/05/29 10:54:12;;;;;;;3.87;1.98;;;;;;;18.79;65.76;98599.23;1855157;76;22531;-67
2021/05/29 10:56:49;;;;;;;5.90;2.47;;;;;;;18.73;66.38;98599.38;1855431;76;22151;-67
2021/05/29 10:59:35;;;;;;;6.03;2.22;;;;;;;18.85;66.37;98600.80;1855824;76;22204;-68
2021/05/29 11:02:20;;;;;;;5.30;2.30;;;;;;;19.13;64.67;98593.47;1866751;76;22207;-67
2021/05/29 11:05:00;;;;;;;4.80;2.08;;;;;;;19.23;64.43;98591.87;1851533;76;22230;-65
2021/05/29 11:07:35;;;;;;;5.40;2.50;;;;;;;19.29;64.17;98591.67;1870347;76;22212;-67
2021/05/29 11:10:16;;;;;;;5.17;2.60;;;;;;;19.16;65.11;98589.02;1870276;76;22301;-67
2021/05/29 11:12:52;;;;;;;5.95;2.47;;;;;;;19.09;66.25;98594.03;1856775;76;22265;-68
2021/05/29 11:15:58;;;;;;;7.00;2.60;;;;;;;19.07;66.79;98591.44;1836437;76;28073;-64
2021/05/29 11:18:33;;;;;;;5.62;2.20;;;;;;;19.21;66.19;98584.52;1842327;76;27902;-66
2021/05/29 11:21:09;;;;;;;5.25;2.15;;;;;;;19.18;64.65;98571.95;1840372;76;22203;-66
2021/05/29 11:23:45;;;;;;;3.80;2.02;;;;;;;19.20;64.92;98598.47;1872738;76;22617;-67
2021/05/29 11:26:26;;;;;;;5.37;1.98;;;;;;;19.26;64.89;98587.84;1850824;76;22167;-66
2021/05/29 11:29:00;;;;;;;5.22;1.82;;;;;;;19.38;63.96;98601.45;1855503;76;22179;-65
2021/05/29 11:31:44;;;;;;;3.85;1.98;;;;;;;19.54;62.76;98579.15;1870357;76;20144;-64
2021/05/29 11:34:42;;;;;;;3.50;1.92;;;;;;;19.61;62.16;98587.19;1827585;78;21703;-68
2021/05/29 11:37:17;;;;;;;5.00;1.45;;;;;;;19.86;61.57;98587.75;1889792;76;22147;-68
2021/05/29 11:39:55;;;;;;;7.28;2.00;;;;;;;19.94;60.35;98583.11;1870501;76;22153;-65
2021/05/29 11:42:35;;;;;;;3.58;1.72;;;;;;;20.00;60.23;98592.52;1865964;76;22143;-66
2021/05/29 11:45:30;;;;;;;3.98;1.70;;;;;;;20.02;60.54;98585.01;1863110;75;22605;-65
2021/05/29 11:48:07;;;;;;;3.77;1.90;;;;;;;20.05;60.90;98599.34;1853183;76;22168;-66
2021/05/29 11:50:40;;;;;;;4.35;2.10;;;;;;;20.12;60.90;98591.68;1835363;76;38358;-66
2021/05/29 11:53:20;;;;;;;6.90;2.30;;;;;;;20.18;60.37;98594.54;1832293;76;28514;-66
2021/05/29 11:55:55;;;;;;;5.08;2.12;;;;;;;20.14;60.14;98583.75;1849753;76;22169;-65
2021/05/29 11:58:53;;;;;;;3.90;2.10;;;;;;;19.92;60.93;98593.66;1821493;77;21137;-64
2021/05/29 12:01:53;;;;;;;6.10;2.15;;;;;;;19.95;62.46;98595.31;1860572;76;22631;-64
2021/05/29 12:04:35;;;;;;;4.35;2.33;;;;;;;20.01;63.02;98604.27;1890164;75;22179;-65
2021/05/29 12:07:09;;;;;;;7.72;3.50;;;;;;;20.04;63.40;98599.37;1854597;76;27924;-66
2021/05/29 12:09:51;;;;;;;6.37;2.70;;;;;;;20.08;63.81;98601.00;1889772;76;22619;-64
2021/05/29 12:12:27;;;;;;;5.75;2.85;;;;;;;20.13;63.71;98600.39;1870440;76;22193;-63
2021/05/29 12:15:14;;;;;;;5.25;2.98;;;;;;;20.00;64.09;98596.44;1827431;78;21146;-66
2021/05/29 12:17:48;;;;;;;4.92;3.10;;;;;;;20.00;64.03;98602.56;1889897;76;22160;-66
2021/05/29 12:20:26;;;;;;;7.03;3.65;;;;;;;19.82;63.67;98590.93;1870445;76;22136;-64
2021/05/29 12:23:03;;;;;;;5.97;3.30;;;;;;;19.56;64.92;98594.33;1889752;76;22580;-62
2021/05/29 12:25:38;;;;;;;5.75;3.20;;;;;;;19.41;65.92;98588.26;1870477;76;22196;-58
2021/05/29 12:28:24;;;;;;;4.53;3.10;;;;;;;19.23;66.01;98597.10;1809077;78;21130;-65